AirNav   Everest Fuels
 
 991 users online  

0LA9 Rebel Field Airport
Walker, Louisiana, USA

GOING TO WALKER?


FAA INFORMATION EFFECTIVE 21 MAY 2020

Location

FAA Identifier: 0LA9
Lat/Long: 30-35-10.6700N 090-51-41.3500W
30-35.177833N 090-51.689167W
30.5862972,-90.8614861
(estimated)
Elevation: 74 ft. / 23 m (estimated)
Variation: 02E (2000)
From city: 6 miles N of WALKER, LA
Time zone: UTC -5 (UTC -6 during Standard Time)
Zip code: 70785

Airport Operations

Airport use: Private use. Permission required prior to landing
Activation date: 11/2000
Control tower: no
ARTCC: HOUSTON CENTER
FSS: DE RIDDER FLIGHT SERVICE STATION
Attendance: UNATNDD
Segmented circle: no

Airport Communications

WX ASOS at BTR (15 nm W): 125.2 (225-354-2138)

Nearby radio navigation aids

VOR radial/distance  VOR name  Freq  Var
LSUr069/23.2FIGHTING TIGER VORTAC116.5006E
HMUr280/(23.3)HAMMOND VOR109.6000E
RQRr333/33.1RESERVE VOR/DME110.8002E

Airport Services

Runway Information

Runway 17/35

Dimensions: 3600 x 100 ft. / 1097 x 30 m
Surface: turf
RUNWAY 17  RUNWAY 35
Traffic pattern: leftleft

Airport Ownership and Management from official FAA records

Ownership: Privately-owned
Owner: PRENTICE D. MOORE
13599 SPRINGFIELD RD
WALKER, LA 70785
Phone 225-235-6353
Manager: PRENTICE D. MOORE
13599 SPRINGFIELD RD
WALKER, LA 70785
Phone 225-235-6353
EMAIL: REBELFIELDAIRPORT@GMAIL.COM

Airport Operational Statistics

Aircraft based on the field: 3
Single engine airplanes: 3
    

Additional Remarks

FOR CD CTC LAFAYETTE APCH AT 337-262-2729, WHEN APCH CLSD CTC HOUSTON ARTCC AT 281-230-5622.

Instrument Procedures

There are no published instrument procedures at 0LA9.

Some nearby airports with instrument procedures:

KBTR - Baton Rouge Metropolitan Airport, Ryan Field (15 nm W)
KHDC - Hammond Northshore Regional Airport (23 nm E)
KREG - Louisiana Regional Airport (25 nm S)
KHZR - False River Regional Airport (33 nm W)
KAPS - Port of South Louisiana Executive Regional Airport (33 nm SE)
 
Loc | Ops | Rwys | IFR | FBO | Links
Com | Nav | Svcs | Stats | Notes
Area around 0LA9 (Rebel Field Airport)
 
Road maps at: MapQuest Bing Google
 
Aerial photo
WARNING: Photo may not be current or correct
Aerial photo of 0LA9 (Rebel Field Airport)
Photo taken 01-Jan-2011
looking southeast.

Do you have a better or more recent aerial photo of Rebel Field Airport that you would like to share? If so, please send us your photo.

 
Sectional chart

 
Airport distance calculator
Flying to Rebel Field Airport? Find the distance to fly.

From to 0LA9

Sunrise and sunset
Times for 03-Jun-2020
 Local
(UTC-5)
 Zulu
(UTC)
Morning civil twilight05:3410:34
Sunrise06:0211:02
Sunset20:0201:02
Evening civil twilight20:2901:29

Current date and time
Zulu (UTC)  04-Jun-2020 00:41:08
Local (UTC-5)  03-Jun-2020 19:41:08
 
METAR
KBTR 
15nm W 
032353Z 15006KT 10SM FEW095 FEW110 26/22 A2995 RMK AO2 SLP142 60000 T02560217 10333 20256 53005
KHDC 
23nm E 
040015Z AUTO 17004KT 10SM CLR 25/22 A2997 RMK AO2
KREG 
25nm S 
040015Z AUTO 12003KT 10SM CLR 24/22 A2995 RMK AO2 T02430221
TAF
KBTR 
15nm W 
032206Z 0322/0418 16008KT P6SM FEW130 OVC250 FM040000 VRB03KT P6SM VCTS SCT020CB BKN100 FM040300 00000KT P6SM SCT020 BKN110 FM041200 00000KT 5SM BR FEW035 SCT110
NOTAMs
Click for the latest NOTAMs
NOTAMs are issued by the DoD/FAA and will open in a separate window not controlled by AirNav.

 

 
 

Would you like to see your business listed on this page?

 If your business provides an interesting product or service to pilots, flight crews, aircraft, or users of the Rebel Field Airport, you should consider listing it here.  To start the listing process, click on the button below
 
Add a business
 

Other Pages about Rebel Field Airport

Update a link
 
Copyright © AirNav, LLC. All rights reserved. Privacy Policy  Contact